sensor_id;sensor_type;location;lat;lon;timestamp;pressure;altitude;pressure_sealevel;temperature;humidity
68941;BME280;55982;51.476;7.552;2023-04-27T00:01:12;100112.50;;;3.50;100.00
68941;BME280;55982;51.476;7.552;2023-04-27T00:03:38;100112.50;;;3.42;100.00
68941;BME280;55982;51.476;7.552;2023-04-27T00:06:03;100113.41;;;3.32;100.00
68941;BME280;55982;51.476;7.552;2023-04-27T00:08:29;100122.84;;;3.26;100.00
68941;BME280;55982;51.476;7.552;2023-04-27T00:10:55;100115.94;;;3.16;100.00
68941;BME280;55982;51.476;7.552;2023-04-27T00:13:20;100121.97;;;3.10;100.00
68941;BME280;55982;51.476;7.552;2023-04-27T00:15:46;100118.50;;;3.02;100.00
68941;BME280;55982;51.476;7.552;2023-04-27T00:18:11;100124.56;;;3.03;100.00
68941;BME280;55982;51.476;7.552;2023-04-27T00:20:37;100122.81;;;3.02;100.00
68941;BME280;55982;51.476;7.552;2023-04-27T00:23:02;100121.09;;;3.02;100.00
68941;BME280;55982;51.476;7.552;2023-04-27T00:25:28;100124.56;;;3.01;100.00
68941;BME280;55982;51.476;7.552;2023-04-27T00:27:53;100121.94;;;2.95;100.00
68941;BME280;55982;51.476;7.552;2023-04-27T00:30:18;100121.94;;;2.92;100.00
68941;BME280;55982;51.476;7.552;2023-04-27T00:32:44;100126.22;;;2.89;100.00
68941;BME280;55982;51.476;7.552;2023-04-27T00:35:10;100121.91;;;2.83;100.00
68941;BME280;55982;51.476;7.552;2023-04-27T00:37:35;100118.44;;;2.75;100.00
68941;BME280;55982;51.476;7.552;2023-04-27T00:40:03;100124.44;;;2.71;100.00
68941;BME280;55982;51.476;7.552;2023-04-27T00:42:29;100125.31;;;2.64;100.00
68941;BME280;55982;51.476;7.552;2023-04-27T00:44:56;100133.03;;;2.56;100.00
68941;BME280;55982;51.476;7.552;2023-04-27T00:47:21;100135.56;;;2.52;100.00
68941;BME280;55982;51.476;7.552;2023-04-27T00:49:47;100135.56;;;2.49;100.00
68941;BME280;55982;51.476;7.552;2023-04-27T00:52:13;100140.75;;;2.49;100.00
68941;BME280;55982;51.476;7.552;2023-04-27T00:54:38;100145.91;;;2.47;100.00
68941;BME280;55982;51.476;7.552;2023-04-27T00:57:04;100145.91;;;2.49;100.00
68941;BME280;55982;51.476;7.552;2023-04-27T00:59:29;100147.63;;;2.47;100.00
68941;BME280;55982;51.476;7.552;2023-04-27T01:01:55;100149.31;;;2.48;100.00
68941;BME280;55982;51.476;7.552;2023-04-27T01:04:20;100145.03;;;2.45;100.00
68941;BME280;55982;51.476;7.552;2023-04-27T01:06:46;100145.88;;;2.40;100.00
68941;BME280;55982;51.476;7.552;2023-04-27T01:09:11;100147.53;;;2.32;100.00
68941;BME280;55982;51.476;7.552;2023-04-27T01:11:37;100155.28;;;2.30;100.00
68941;BME280;55982;51.476;7.552;2023-04-27T01:14:04;100155.25;;;2.29;100.00
68941;BME280;55982;51.476;7.552;2023-04-27T01:16:31;100156.97;;;2.25;100.00
68941;BME280;55982;51.476;7.552;2023-04-27T01:18:57;100153.50;;;2.19;100.00
68941;BME280;55982;51.476;7.552;2023-04-27T01:21:22;100156.09;;;2.19;100.00
68941;BME280;55982;51.476;7.552;2023-04-27T01:23:47;100156.91;;;2.15;100.00
68941;BME280;55982;51.476;7.552;2023-04-27T01:26:13;100159.47;;;2.12;100.00
68941;BME280;55982;51.476;7.552;2023-04-27T01:28:43;100172.38;;;2.12;100.00
68941;BME280;55982;51.476;7.552;2023-04-27T01:31:09;100176.66;;;2.07;100.00
68941;BME280;55982;51.476;7.552;2023-04-27T01:33:35;100175.78;;;2.05;100.00
68941;BME280;55982;51.476;7.552;2023-04-27T01:36:01;100175.78;;;2.06;100.00
68941;BME280;55982;51.476;7.552;2023-04-27T01:38:26;100166.31;;;2.07;100.00
68941;BME280;55982;51.476;7.552;2023-04-27T01:40:51;100164.59;;;2.06;100.00
68941;BME280;55982;51.476;7.552;2023-04-27T01:43:19;100166.31;;;2.07;100.00
68941;BME280;55982;51.476;7.552;2023-04-27T01:45:44;100164.56;;;2.03;100.00
68941;BME280;55982;51.476;7.552;2023-04-27T01:48:10;100179.19;;;2.02;100.00
68941;BME280;55982;51.476;7.552;2023-04-27T01:50:36;100171.44;;;2.01;100.00
68941;BME280;55982;51.476;7.552;2023-04-27T01:53:01;100177.47;;;2.01;100.00
68941;BME280;55982;51.476;7.552;2023-04-27T01:55:27;100185.22;;;2.00;100.00
68941;BME280;55982;51.476;7.552;2023-04-27T01:57:53;100178.31;;;1.99;100.00
68941;BME280;55982;51.476;7.552;2023-04-27T02:00:18;100188.56;;;1.91;100.00
68941;BME280;55982;51.476;7.552;2023-04-27T02:02:43;100186.88;;;1.92;100.00
68941;BME280;55982;51.476;7.552;2023-04-27T02:05:09;100186.81;;;1.85;100.00
68941;BME280;55982;51.476;7.552;2023-04-27T02:07:35;100185.06;;;1.81;100.00
68941;BME280;55982;51.476;7.552;2023-04-27T02:10:00;100181.59;;;1.79;100.00
68941;BME280;55982;51.476;7.552;2023-04-27T02:12:26;100194.50;;;1.82;100.00
68941;BME280;55982;51.476;7.552;2023-04-27T02:14:51;100192.84;;;1.86;100.00
68941;BME280;55982;51.476;7.552;2023-04-27T02:17:16;100194.56;;;1.87;100.00
68941;BME280;55982;51.476;7.552;2023-04-27T02:19:41;100194.56;;;1.87;100.00
68941;BME280;55982;51.476;7.552;2023-04-27T02:22:07;100194.56;;;1.87;100.00
68941;BME280;55982;51.476;7.552;2023-04-27T02:24:34;100201.44;;;1.86;100.00
68941;BME280;55982;51.476;7.552;2023-04-27T02:26:59;100191.97;;;1.85;100.00
68941;BME280;55982;51.476;7.552;2023-04-27T02:29:29;100191.97;;;1.85;100.00
68941;BME280;55982;51.476;7.552;2023-04-27T02:31:54;100192.84;;;1.88;100.00
68941;BME280;55982;51.476;7.552;2023-04-27T02:34:19;100193.69;;;1.85;100.00
68941;BME280;55982;51.476;7.552;2023-04-27T02:36:45;100193.69;;;1.83;100.00
68941;BME280;55982;51.476;7.552;2023-04-27T02:39:10;100191.97;;;1.85;100.00
68941;BME280;55982;51.476;7.552;2023-04-27T02:41:35;100193.69;;;1.86;100.00
68941;BME280;55982;51.476;7.552;2023-04-27T02:44:01;100192.84;;;1.88;100.00
68941;BME280;55982;51.476;7.552;2023-04-27T02:46:26;100192.03;;;1.92;100.00
68941;BME280;55982;51.476;7.552;2023-04-27T02:48:51;100189.44;;;1.95;100.00
68941;BME280;55982;51.476;7.552;2023-04-27T02:51:17;100193.78;;;1.99;100.00
68941;BME280;55982;51.476;7.552;2023-04-27T02:53:42;100186.91;;;2.01;100.00
68941;BME280;55982;51.476;7.552;2023-04-27T02:56:07;100190.34;;;1.97;100.00
68941;BME280;55982;51.476;7.552;2023-04-27T02:58:33;100181.72;;;1.95;100.00
68941;BME280;55982;51.476;7.552;2023-04-27T03:00:58;100179.97;;;1.91;100.00
68941;BME280;55982;51.476;7.552;2023-04-27T03:03:24;100177.38;;;1.88;100.00
68941;BME280;55982;51.476;7.552;2023-04-27T03:05:49;100173.03;;;1.80;100.00
68941;BME280;55982;51.476;7.552;2023-04-27T03:08:15;100173.81;;;1.75;100.00
68941;BME280;55982;51.476;7.552;2023-04-27T03:10:40;100173.81;;;1.75;100.00
68941;BME280;55982;51.476;7.552;2023-04-27T03:13:05;100179.91;;;1.78;100.00
68941;BME280;55982;51.476;7.552;2023-04-27T03:15:31;100181.59;;;1.79;100.00
68941;BME280;55982;51.476;7.552;2023-04-27T03:17:56;100180.72;;;1.77;100.00
68941;BME280;55982;51.476;7.552;2023-04-27T03:20:22;100171.25;;;1.73;100.00
68941;BME280;55982;51.476;7.552;2023-04-27T03:22:47;100178.09;;;1.67;100.00
68941;BME280;55982;51.476;7.552;2023-04-27T03:25:12;100176.34;;;1.67;100.00
68941;BME280;55982;51.476;7.552;2023-04-27T03:27:38;100165.19;;;1.67;100.00
68941;BME280;55982;51.476;7.552;2023-04-27T03:30:04;100169.47;;;1.66;100.00
68941;BME280;55982;51.476;7.552;2023-04-27T03:32:30;100163.44;;;1.64;100.00
68941;BME280;55982;51.476;7.552;2023-04-27T03:34:55;100162.56;;;1.62;100.00
68941;BME280;55982;51.476;7.552;2023-04-27T03:37:21;100162.50;;;1.56;100.00
68941;BME280;55982;51.476;7.552;2023-04-27T03:39:46;100162.50;;;1.56;100.00
68941;BME280;55982;51.476;7.552;2023-04-27T03:42:11;100169.38;;;1.54;100.00
68941;BME280;55982;51.476;7.552;2023-04-27T03:44:37;100175.41;;;1.56;100.00
68941;BME280;55982;51.476;7.552;2023-04-27T03:47:02;100177.19;;;1.65;100.00
68941;BME280;55982;51.476;7.552;2023-04-27T03:49:33;100173.69;;;1.60;100.00
68941;BME280;55982;51.476;7.552;2023-04-27T03:51:58;100176.28;;;1.58;100.00
68941;BME280;55982;51.476;7.552;2023-04-27T03:54:24;100184.88;;;1.59;100.00
68941;BME280;55982;51.476;7.552;2023-04-27T03:56:49;100193.50;;;1.59;100.00
68941;BME280;55982;51.476;7.552;2023-04-27T03:59:14;100195.19;;;1.60;100.00
68941;BME280;55982;51.476;7.552;2023-04-27T04:01:40;100192.84;;;1.91;100.00
68941;BME280;55982;51.476;7.552;2023-04-27T04:04:05;100188.69;;;2.08;100.00
68941;BME280;55982;51.476;7.552;2023-04-27T04:06:31;100193.81;;;2.02;100.00
68941;BME280;55982;51.476;7.552;2023-04-27T04:08:57;100205.84;;;2.03;100.00
68941;BME280;55982;51.476;7.552;2023-04-27T04:11:22;100196.31;;;1.88;100.00
68941;BME280;55982;51.476;7.552;2023-04-27T04:13:48;100194.56;;;1.88;100.00
68941;BME280;55982;51.476;7.552;2023-04-27T04:16:13;100202.25;;;1.82;100.00
68941;BME280;55982;51.476;7.552;2023-04-27T04:18:39;100198.94;;;1.96;100.00
68941;BME280;55982;51.476;7.552;2023-04-27T04:21:04;100202.50;;;2.16;100.00
68941;BME280;55982;51.476;7.552;2023-04-27T04:23:30;100212.03;;;2.26;100.00
68941;BME280;55982;51.476;7.552;2023-04-27T04:25:57;100210.38;;;2.34;100.00
68941;BME280;55982;51.476;7.552;2023-04-27T04:28:22;100218.06;;;2.28;100.00
68941;BME280;55982;51.476;7.552;2023-04-27T04:30:48;100217.19;;;2.26;100.00
68941;BME280;55982;51.476;7.552;2023-04-27T04:33:14;100213.75;;;2.27;100.00
68941;BME280;55982;51.476;7.552;2023-04-27T04:35:39;100210.34;;;2.31;100.00
68941;BME280;55982;51.476;7.552;2023-04-27T04:38:09;100221.63;;;2.48;100.00
68941;BME280;55982;51.476;7.552;2023-04-27T04:40:37;100219.97;;;2.59;100.00
68941;BME280;55982;51.476;7.552;2023-04-27T04:43:03;100217.41;;;2.63;100.00
68941;BME280;55982;51.476;7.552;2023-04-27T04:45:28;100216.53;;;2.61;100.00
68941;BME280;55982;51.476;7.552;2023-04-27T04:47:54;100220.03;;;2.71;100.00
68941;BME280;55982;51.476;7.552;2023-04-27T04:50:19;100217.47;;;2.72;100.00
68941;BME280;55982;51.476;7.552;2023-04-27T04:52:45;100213.22;;;2.88;100.00
68941;BME280;55982;51.476;7.552;2023-04-27T04:55:10;100208.97;;;2.99;100.00
68941;BME280;55982;51.476;7.552;2023-04-27T04:57:35;100201.22;;;3.11;100.00
68941;BME280;55982;51.476;7.552;2023-04-27T05:00:01;100199.53;;;3.25;100.00
68941;BME280;55982;51.476;7.552;2023-04-27T05:02:28;100195.28;;;3.39;100.00
68941;BME280;55982;51.476;7.552;2023-04-27T05:04:53;100204.78;;;3.49;100.00
68941;BME280;55982;51.476;7.552;2023-04-27T05:07:20;100194.41;;;3.55;100.00
68941;BME280;55982;51.476;7.552;2023-04-27T05:09:46;100189.28;;;3.63;100.00
68941;BME280;55982;51.476;7.552;2023-04-27T05:12:11;100191.84;;;3.72;100.00
68941;BME280;55982;51.476;7.552;2023-04-27T05:14:37;100203.06;;;3.82;100.00
68941;BME280;55982;51.476;7.552;2023-04-27T05:17:02;100203.94;;;3.91;100.00
68941;BME280;55982;51.476;7.552;2023-04-27T05:19:28;100203.03;;;4.06;100.00
68941;BME280;55982;51.476;7.552;2023-04-27T05:21:54;100206.50;;;4.11;100.00
68941;BME280;55982;51.476;7.552;2023-04-27T05:24:19;100203.03;;;4.18;100.00
68941;BME280;55982;51.476;7.552;2023-04-27T05:26:45;100205.59;;;4.21;100.00
68941;BME280;55982;51.476;7.552;2023-04-27T05:29:10;100207.31;;;4.35;100.00
68941;BME280;55982;51.476;7.552;2023-04-27T05:31:35;100209.91;;;4.43;100.00
68941;BME280;55982;51.476;7.552;2023-04-27T05:34:01;100216.75;;;4.62;100.00
68941;BME280;55982;51.476;7.552;2023-04-27T05:36:26;100211.59;;;4.53;100.00
68941;BME280;55982;51.476;7.552;2023-04-27T05:38:53;100213.28;;;4.68;100.00
68941;BME280;55982;51.476;7.552;2023-04-27T05:41:18;100216.72;;;4.65;100.00
68941;BME280;55982;51.476;7.552;2023-04-27T05:43:43;100231.34;;;4.84;100.00
68941;BME280;55982;51.476;7.552;2023-04-27T05:46:12;100224.41;;;4.91;100.00
68941;BME280;55982;51.476;7.552;2023-04-27T05:48:39;100232.16;;;4.98;100.00
68941;BME280;55982;51.476;7.552;2023-04-27T05:51:04;100233.81;;;5.20;100.00
68941;BME280;55982;51.476;7.552;2023-04-27T05:53:31;100229.47;;;5.19;100.00
68941;BME280;55982;51.476;7.552;2023-04-27T05:55:57;100238.97;;;5.23;100.00
68941;BME280;55982;51.476;7.552;2023-04-27T05:58:23;100240.63;;;5.36;100.00
68941;BME280;55982;51.476;7.552;2023-04-27T06:00:49;100242.34;;;5.43;100.00
68941;BME280;55982;51.476;7.552;2023-04-27T06:03:14;100240.59;;;5.42;100.00
68941;BME280;55982;51.476;7.552;2023-04-27T06:05:40;100248.28;;;5.61;100.00
68941;BME280;55982;51.476;7.552;2023-04-27T06:08:05;100248.97;;;5.87;100.00
68941;BME280;55982;51.476;7.552;2023-04-27T06:10:31;100244.56;;;5.98;100.00
68941;BME280;55982;51.476;7.552;2023-04-27T06:12:56;100247.22;;;5.93;100.00
68941;BME280;55982;51.476;7.552;2023-04-27T06:15:21;100247.00;;;6.16;100.00
68941;BME280;55982;51.476;7.552;2023-04-27T06:17:47;100251.34;;;6.15;100.00
68941;BME280;55982;51.476;7.552;2023-04-27T06:20:12;100254.69;;;6.26;100.00
68941;BME280;55982;51.476;7.552;2023-04-27T06:22:38;100237.44;;;6.24;100.00
68941;BME280;55982;51.476;7.552;2023-04-27T06:25:06;100243.44;;;6.29;100.00
68941;BME280;55982;51.476;7.552;2023-04-27T06:27:32;100246.94;;;6.25;100.00
68941;BME280;55982;51.476;7.552;2023-04-27T06:29:58;100235.47;;;6.47;100.00
68941;BME280;55982;51.476;7.552;2023-04-27T06:32:23;100252.66;;;6.60;100.00
68941;BME280;55982;51.476;7.552;2023-04-27T06:34:49;100254.31;;;6.67;100.00
68941;BME280;55982;51.476;7.552;2023-04-27T06:37:15;100255.25;;;6.60;100.00
68941;BME280;55982;51.476;7.552;2023-04-27T06:39:42;100248.47;;;7.21;100.00
68941;BME280;55982;51.476;7.552;2023-04-27T06:42:08;100251.81;;;6.55;100.00
68941;BME280;55982;51.476;7.552;2023-04-27T06:44:34;100254.06;;;6.88;100.00
68941;BME280;55982;51.476;7.552;2023-04-27T06:46:59;100248.19;;;6.74;100.00
68941;BME280;55982;51.476;7.552;2023-04-27T06:49:24;100249.59;;;6.99;100.00
68941;BME280;55982;51.476;7.552;2023-04-27T06:51:50;100244.59;;;7.50;100.00
68941;BME280;55982;51.476;7.552;2023-04-27T06:54:16;100239.22;;;7.62;100.00
68941;BME280;55982;51.476;7.552;2023-04-27T06:56:41;100241.09;;;7.54;100.00
68941;BME280;55982;51.476;7.552;2023-04-27T06:59:07;100242.44;;;7.19;100.00
68941;BME280;55982;51.476;7.552;2023-04-27T07:01:32;100237.63;;;7.55;100.00
68941;BME280;55982;51.476;7.552;2023-04-27T07:03:58;100225.22;;;8.25;100.00
68941;BME280;55982;51.476;7.552;2023-04-27T07:06:23;100227.03;;;8.20;100.00
68941;BME280;55982;51.476;7.552;2023-04-27T07:08:50;100222.75;;;8.66;100.00
68941;BME280;55982;51.476;7.552;2023-04-27T07:11:15;100224.75;;;8.96;100.00
68941;BME280;55982;51.476;7.552;2023-04-27T07:13:41;100227.03;;;9.11;100.00
68941;BME280;55982;51.476;7.552;2023-04-27T07:16:06;100224.88;;;9.70;100.00
68941;BME280;55982;51.476;7.552;2023-04-27T07:18:32;100220.75;;;9.60;100.00
68941;BME280;55982;51.476;7.552;2023-04-27T07:20:57;100220.63;;;9.66;100.00
68941;BME280;55982;51.476;7.552;2023-04-27T07:23:23;100220.88;;;9.54;96.63
68941;BME280;55982;51.476;7.552;2023-04-27T07:25:48;100235.03;;;9.44;89.66
68941;BME280;55982;51.476;7.552;2023-04-27T07:28:14;100231.19;;;10.33;100.00
68941;BME280;55982;51.476;7.552;2023-04-27T07:30:40;100233.19;;;10.56;90.89
68941;BME280;55982;51.476;7.552;2023-04-27T07:33:06;100225.84;;;9.66;99.59
68941;BME280;55982;51.476;7.552;2023-04-27T07:35:32;100221.00;;;9.48;97.05
68941;BME280;55982;51.476;7.552;2023-04-27T07:37:58;100222.81;;;10.19;91.85
68941;BME280;55982;51.476;7.552;2023-04-27T07:40:26;100221.97;;;10.52;94.34
68941;BME280;55982;51.476;7.552;2023-04-27T07:42:52;100231.16;;;10.97;90.84
68941;BME280;55982;51.476;7.552;2023-04-27T07:45:17;100230.88;;;11.06;79.83
68941;BME280;55982;51.476;7.552;2023-04-27T07:47:42;100225.31;;;11.77;78.74
68941;BME280;55982;51.476;7.552;2023-04-27T07:50:09;100224.53;;;10.54;76.52
68941;BME280;55982;51.476;7.552;2023-04-27T07:52:35;100226.88;;;10.31;88.57
68941;BME280;55982;51.476;7.552;2023-04-27T07:55:01;100221.16;;;11.41;77.64
68941;BME280;55982;51.476;7.552;2023-04-27T07:57:27;100223.13;;;10.41;77.70
68941;BME280;55982;51.476;7.552;2023-04-27T07:59:53;100222.97;;;11.39;78.60
68941;BME280;55982;51.476;7.552;2023-04-27T08:02:18;100218.25;;;12.05;72.42
68941;BME280;55982;51.476;7.552;2023-04-27T08:04:44;100232.41;;;12.27;72.67
68941;BME280;55982;51.476;7.552;2023-04-27T08:07:09;100229.84;;;12.24;76.55
68941;BME280;55982;51.476;7.552;2023-04-27T08:09:35;100231.28;;;11.24;70.41
68941;BME280;55982;51.476;7.552;2023-04-27T08:12:00;100223.22;;;13.36;69.42
68941;BME280;55982;51.476;7.552;2023-04-27T08:14:27;100226.00;;;13.54;68.79
68941;BME280;55982;51.476;7.552;2023-04-27T08:16:52;100224.81;;;12.44;67.91
68941;BME280;55982;51.476;7.552;2023-04-27T08:19:17;100223.94;;;13.18;65.77
68941;BME280;55982;51.476;7.552;2023-04-27T08:21:43;100234.09;;;13.27;64.85
68941;BME280;55982;51.476;7.552;2023-04-27T08:24:08;100233.13;;;10.89;72.38
68941;BME280;55982;51.476;7.552;2023-04-27T08:26:33;100226.72;;;12.39;69.18
68941;BME280;55982;51.476;7.552;2023-04-27T08:29:00;100227.78;;;12.58;66.16
68941;BME280;55982;51.476;7.552;2023-04-27T08:31:25;100224.00;;;12.16;67.63
68941;BME280;55982;51.476;7.552;2023-04-27T08:33:52;100225.13;;;13.77;64.96
68941;BME280;55982;51.476;7.552;2023-04-27T08:36:19;100235.94;;;14.75;63.13
68941;BME280;55982;51.476;7.552;2023-04-27T08:38:45;100226.47;;;14.71;59.66
68941;BME280;55982;51.476;7.552;2023-04-27T08:41:17;100213.06;;;13.27;60.88
68941;BME280;55982;51.476;7.552;2023-04-27T08:43:42;100227.38;;;12.46;64.51
68941;BME280;55982;51.476;7.552;2023-04-27T08:46:09;100219.72;;;12.14;67.06
68941;BME280;55982;51.476;7.552;2023-04-27T08:48:35;100216.28;;;13.12;65.67
68941;BME280;55982;51.476;7.552;2023-04-27T08:51:01;100208.59;;;13.52;62.41
68941;BME280;55982;51.476;7.552;2023-04-27T08:53:27;100212.09;;;14.78;59.91
68941;BME280;55982;51.476;7.552;2023-04-27T08:55:52;100209.34;;;15.19;59.25
68941;BME280;55982;51.476;7.552;2023-04-27T08:58:19;100216.47;;;15.36;52.24
68941;BME280;55982;51.476;7.552;2023-04-27T09:00:45;100226.31;;;14.74;51.97
68941;BME280;55982;51.476;7.552;2023-04-27T09:03:21;100220.16;;;12.77;59.17
68941;BME280;55982;51.476;7.552;2023-04-27T09:05:47;100222.34;;;13.14;57.24
68941;BME280;55982;51.476;7.552;2023-04-27T09:08:13;100219.84;;;13.99;55.25
68941;BME280;55982;51.476;7.552;2023-04-27T09:10:51;100219.56;;;15.25;52.50
68941;BME280;55982;51.476;7.552;2023-04-27T09:13:17;100216.56;;;14.96;53.26
68941;BME280;55982;51.476;7.552;2023-04-27T09:15:50;100208.72;;;13.92;50.36
68941;BME280;55982;51.476;7.552;2023-04-27T09:18:21;100212.63;;;14.45;51.57
68941;BME280;55982;51.476;7.552;2023-04-27T09:20:50;100190.97;;;13.97;50.70
68941;BME280;55982;51.476;7.552;2023-04-27T09:23:32;100213.84;;;13.73;52.08
68941;BME280;55982;51.476;7.552;2023-04-27T09:25:59;100211.44;;;14.52;58.96
68941;BME280;55982;51.476;7.552;2023-04-27T09:28:26;100216.03;;;14.88;51.17
68941;BME280;55982;51.476;7.552;2023-04-27T09:30:59;100207.44;;;15.03;50.88
68941;BME280;55982;51.476;7.552;2023-04-27T09:33:26;100204.34;;;15.13;52.35
68941;BME280;55982;51.476;7.552;2023-04-27T09:35:52;100207.34;;;13.60;49.71
68941;BME280;55982;51.476;7.552;2023-04-27T09:38:19;100190.41;;;13.89;47.93
68941;BME280;55982;51.476;7.552;2023-04-27T09:40:45;100193.13;;;14.29;48.22
68941;BME280;55982;51.476;7.552;2023-04-27T09:43:11;100197.22;;;14.77;50.00
68941;BME280;55982;51.476;7.552;2023-04-27T09:45:37;100189.91;;;13.81;49.55
68941;BME280;55982;51.476;7.552;2023-04-27T09:48:04;100176.06;;;13.76;49.60
68941;BME280;55982;51.476;7.552;2023-04-27T09:50:30;100181.97;;;14.44;49.46
68941;BME280;55982;51.476;7.552;2023-04-27T09:52:59;100188.91;;;13.84;48.71
68941;BME280;55982;51.476;7.552;2023-04-27T09:55:29;100177.66;;;13.37;48.11
68941;BME280;55982;51.476;7.552;2023-04-27T10:01:27;100168.16;;;13.33;49.66
68941;BME280;55982;51.476;7.552;2023-04-27T10:07:01;100176.69;;;14.85;46.94
68941;BME280;55982;51.476;7.552;2023-04-27T10:09:41;100179.69;;;14.15;49.19
68941;BME280;55982;51.476;7.552;2023-04-27T10:12:27;100173.53;;;14.77;47.97
68941;BME280;55982;51.476;7.552;2023-04-27T10:14:57;100176.03;;;14.19;48.17
68941;BME280;55982;51.476;7.552;2023-04-27T10:17:33;100172.00;;;15.10;46.67
68941;BME280;55982;51.476;7.552;2023-04-27T10:20:06;100172.56;;;15.72;46.32
68941;BME280;55982;51.476;7.552;2023-04-27T10:25:21;100167.06;;;17.27;41.99
68941;BME280;55982;51.476;7.552;2023-04-27T10:27:50;100168.81;;;17.44;42.10
68941;BME280;55982;51.476;7.552;2023-04-27T10:30:18;100168.06;;;16.94;44.96
68941;BME280;55982;51.476;7.552;2023-04-27T10:32:55;100163.47;;;15.96;45.34
68941;BME280;55982;51.476;7.552;2023-04-27T10:35:31;100157.22;;;16.66;43.54
68941;BME280;55982;51.476;7.552;2023-04-27T10:40:33;100143.69;;;17.98;39.99
68941;BME280;55982;51.476;7.552;2023-04-27T10:43:13;100145.34;;;15.53;45.06
68941;BME280;55982;51.476;7.552;2023-04-27T10:45:39;100137.47;;;15.70;41.26
68941;BME280;55982;51.476;7.552;2023-04-27T10:48:06;100140.22;;;17.66;43.97
68941;BME280;55982;51.476;7.552;2023-04-27T10:50:31;100128.84;;;16.54;41.18
68941;BME280;55982;51.476;7.552;2023-04-27T10:53:03;100133.97;;;17.05;41.75
68941;BME280;55982;51.476;7.552;2023-04-27T10:55:28;100137.47;;;17.21;39.63
68941;BME280;55982;51.476;7.552;2023-04-27T10:57:56;100131.81;;;19.19;36.90
68941;BME280;55982;51.476;7.552;2023-04-27T11:00:24;100122.91;;;18.64;36.91
68941;BME280;55982;51.476;7.552;2023-04-27T11:02:52;100121.19;;;17.44;38.97
68941;BME280;55982;51.476;7.552;2023-04-27T11:05:19;100130.66;;;15.83;43.16
68941;BME280;55982;51.476;7.552;2023-04-27T11:07:46;100126.13;;;16.04;45.22
68941;BME280;55982;51.476;7.552;2023-04-27T11:10:18;100110.38;;;16.85;42.80
68941;BME280;55982;51.476;7.552;2023-04-27T11:12:44;100115.97;;;15.96;43.63
68941;BME280;55982;51.476;7.552;2023-04-27T11:15:10;100117.47;;;17.48;40.39
68941;BME280;55982;51.476;7.552;2023-04-27T11:17:36;100108.56;;;16.20;40.17
68941;BME280;55982;51.476;7.552;2023-04-27T11:20:02;100101.56;;;14.37;42.24
68941;BME280;55982;51.476;7.552;2023-04-27T11:22:31;100118.66;;;14.27;44.11
68941;BME280;55982;51.476;7.552;2023-04-27T11:24:56;100119.59;;;16.11;43.07
68941;BME280;55982;51.476;7.552;2023-04-27T11:27:22;100119.75;;;17.23;40.55
68941;BME280;55982;51.476;7.552;2023-04-27T11:29:49;100115.44;;;18.12;40.93
68941;BME280;55982;51.476;7.552;2023-04-27T11:32:22;100117.03;;;17.85;39.05
68941;BME280;55982;51.476;7.552;2023-04-27T11:34:52;100121.69;;;18.11;37.00
68941;BME280;55982;51.476;7.552;2023-04-27T11:37:22;100122.47;;;16.58;38.39
68941;BME280;55982;51.476;7.552;2023-04-27T11:39:48;100115.22;;;19.44;35.50
68941;BME280;55982;51.476;7.552;2023-04-27T11:42:21;100117.94;;;18.29;41.54
68941;BME280;55982;51.476;7.552;2023-04-27T11:44:58;100112.44;;;18.18;39.14
68941;BME280;55982;51.476;7.552;2023-04-27T11:47:27;100118.59;;;17.27;39.27
68941;BME280;55982;51.476;7.552;2023-04-27T11:49:56;100113.47;;;17.86;38.96
68941;BME280;55982;51.476;7.552;2023-04-27T11:52:36;100112.63;;;16.42;38.08
68941;BME280;55982;51.476;7.552;2023-04-27T11:55:02;100105.25;;;17.61;39.38
68941;BME280;55982;51.476;7.552;2023-04-27T11:57:32;100108.09;;;16.79;41.54
68941;BME280;55982;51.476;7.552;2023-04-27T11:59:59;100100.44;;;16.07;41.90
68941;BME280;55982;51.476;7.552;2023-04-27T12:02:26;100100.72;;;16.01;41.10
68941;BME280;55982;51.476;7.552;2023-04-27T12:04:52;100104.75;;;16.25;40.34
68941;BME280;55982;51.476;7.552;2023-04-27T12:07:18;100102.06;;;16.92;39.04
68941;BME280;55982;51.476;7.552;2023-04-27T12:09:44;100101.34;;;18.70;36.65
68941;BME280;55982;51.476;7.552;2023-04-27T12:12:10;100101.22;;;20.58;34.36
68941;BME280;55982;51.476;7.552;2023-04-27T12:14:37;100094.91;;;18.88;35.65
68941;BME280;55982;51.476;7.552;2023-04-27T12:17:02;100092.41;;;17.99;37.92
68941;BME280;55982;51.476;7.552;2023-04-27T12:19:28;100102.16;;;17.69;37.83
68941;BME280;55982;51.476;7.552;2023-04-27T12:21:54;100099.50;;;17.37;38.27
68941;BME280;55982;51.476;7.552;2023-04-27T12:24:20;100077.66;;;18.81;37.00
68941;BME280;55982;51.476;7.552;2023-04-27T12:26:46;100087.28;;;18.25;35.75
68941;BME280;55982;51.476;7.552;2023-04-27T12:29:12;100087.47;;;18.37;37.39
68941;BME280;55982;51.476;7.552;2023-04-27T12:31:38;100081.41;;;18.35;41.36
68941;BME280;55982;51.476;7.552;2023-04-27T12:34:03;100082.59;;;17.71;36.42
68941;BME280;55982;51.476;7.552;2023-04-27T12:36:28;100071.53;;;18.52;38.32
68941;BME280;55982;51.476;7.552;2023-04-27T12:39:10;100076.41;;;18.30;41.57
68941;BME280;55982;51.476;7.552;2023-04-27T12:41:37;100074.22;;;18.22;37.87
68941;BME280;55982;51.476;7.552;2023-04-27T12:44:03;100057.81;;;18.46;36.47
68941;BME280;55982;51.476;7.552;2023-04-27T12:46:28;100078.53;;;16.88;38.24
68941;BME280;55982;51.476;7.552;2023-04-27T12:48:54;100071.53;;;16.87;39.65
68941;BME280;55982;51.476;7.552;2023-04-27T12:51:21;100069.44;;;16.61;39.69
68941;BME280;55982;51.476;7.552;2023-04-27T12:53:46;100073.59;;;16.97;39.13
68941;BME280;55982;51.476;7.552;2023-04-27T12:56:12;100070.16;;;16.80;39.54
68941;BME280;55982;51.476;7.552;2023-04-27T12:58:37;100066.00;;;14.47;42.57